Time;durP1;ratioP1;P1;durP2;ratioP2;P2;SDS_P1;SDS_P2;PMS_P1;PMS_P2;Temp;Humidity;BMP_temperature;BMP_pressure;BME280_temperature;BME280_humidity;BME280_pressure;Samples;Min_cycle;Max_cycle;Signal;HPM_P1;HPM_P2
2023/09/05 00:01:33;;;;;;;13.18;8.80;;;;;;;;;;5100518;28;20488;-71
2023/09/05 00:03:59;;;;;;;10.10;7.68;;;;;;;;;;5095386;28;20187;-72
2023/09/05 00:06:25;;;;;;;9.70;7.93;;;;;;;;;;5101441;28;20034;-72
2023/09/05 00:08:51;;;;;;;11.07;8.40;;;;;;;;;;5103076;28;20031;-71
2023/09/05 00:11:17;;;;;;;13.60;7.45;;;;;;;;;;5105960;28;20034;-71
2023/09/05 00:13:43;;;;;;;10.25;7.35;;;;;;;;;;5097588;28;20024;-72
2023/09/05 00:16:09;;;;;;;10.75;7.40;;;;;;;;;;5099313;28;20047;-72
2023/09/05 00:18:36;;;;;;;9.40;7.57;;;;;;;;;;5103774;28;20168;-72
2023/09/05 00:21:02;;;;;;;10.52;7.20;;;;;;;;;;5104566;28;20019;-72
2023/09/05 00:23:28;;;;;;;11.13;6.78;;;;;;;;;;5100803;28;20027;-71
2023/09/05 00:25:54;;;;;;;13.00;7.63;;;;;;;;;;5085093;28;20019;-71
2023/09/05 00:28:21;;;;;;;10.15;6.53;;;;;;;;;;5107067;28;20019;-72
2023/09/05 00:30:47;;;;;;;8.73;6.45;;;;;;;;;;5103452;27;20096;-71
2023/09/05 00:33:14;;;;;;;10.25;7.70;;;;;;;;;;5093398;28;20542;-71
2023/09/05 00:35:40;;;;;;;10.00;6.97;;;;;;;;;;5104241;28;20023;-71
2023/09/05 00:38:06;;;;;;;9.30;6.93;;;;;;;;;;5102793;28;20049;-71
2023/09/05 00:40:33;;;;;;;10.68;7.63;;;;;;;;;;5086450;28;20516;-71
2023/09/05 00:42:59;;;;;;;10.57;6.85;;;;;;;;;;5101726;28;20066;-72
2023/09/05 00:45:25;;;;;;;10.75;7.35;;;;;;;;;;5102955;28;20046;-71
2023/09/05 00:47:51;;;;;;;12.05;7.88;;;;;;;;;;5081064;28;20126;-71
2023/09/05 00:50:21;;;;;;;11.65;7.78;;;;;;;;;;5088554;28;20391;-72
2023/09/05 00:52:48;;;;;;;14.13;8.43;;;;;;;;;;5104258;28;20110;-71
2023/09/05 00:55:14;;;;;;;15.27;9.20;;;;;;;;;;5102216;28;20024;-71
2023/09/05 00:57:41;;;;;;;11.93;9.43;;;;;;;;;;5099648;28;20476;-71
2023/09/05 01:00:09;;;;;;;11.45;8.45;;;;;;;;;;5102777;28;20024;-72
2023/09/05 01:02:35;;;;;;;10.27;8.52;;;;;;;;;;5101939;28;20051;-72
2023/09/05 01:05:02;;;;;;;11.38;8.95;;;;;;;;;;5106229;28;20024;-71
2023/09/05 01:07:37;;;;;;;13.82;8.90;;;;;;;;;;5085180;28;20026;-72
2023/09/05 01:10:03;;;;;;;;;;;;;;;;;;5090516;28;20073;-72
2023/09/05 01:12:30;;;;;;;10.90;8.35;;;;;;;;;;5104522;28;20444;-71
2023/09/05 01:14:56;;;;;;;10.77;7.93;;;;;;;;;;5104148;28;20608;-72
2023/09/05 01:17:22;;;;;;;10.48;8.18;;;;;;;;;;5083721;28;20015;-71
2023/09/05 01:19:53;;;;;;;11.73;8.43;;;;;;;;;;5092403;28;20556;-72
2023/09/05 01:22:34;;;;;;;11.95;7.57;;;;;;;;;;5081937;28;20578;-71
2023/09/05 01:25:00;;;;;;;10.13;7.40;;;;;;;;;;5105717;28;20028;-72
2023/09/05 01:27:28;;;;;;;9.98;7.60;;;;;;;;;;5086816;28;20379;-71
2023/09/05 01:29:55;;;;;;;10.82;7.45;;;;;;;;;;5086974;28;20055;-72
2023/09/05 01:32:21;;;;;;;12.20;8.23;;;;;;;;;;5096095;28;20385;-71
2023/09/05 01:34:50;;;;;;;8.68;7.43;;;;;;;;;;5086291;28;20281;-71
2023/09/05 01:37:17;;;;;;;9.50;6.85;;;;;;;;;;5103988;28;20478;-71
2023/09/05 01:39:43;;;;;;;9.30;6.82;;;;;;;;;;5081886;28;20078;-71
2023/09/05 01:42:09;;;;;;;10.13;7.55;;;;;;;;;;5100718;28;20035;-71
2023/09/05 01:44:36;;;;;;;8.60;6.93;;;;;;;;;;5086217;28;20524;-71
2023/09/05 01:47:03;;;;;;;10.55;7.22;;;;;;;;;;5100471;28;20027;-71
2023/09/05 01:49:29;;;;;;;9.38;7.03;;;;;;;;;;5105057;28;20034;-71
2023/09/05 01:51:55;;;;;;;7.53;6.60;;;;;;;;;;5107968;28;20031;-71
2023/09/05 01:54:21;;;;;;;9.85;7.15;;;;;;;;;;5106246;28;20213;-72
2023/09/05 01:56:47;;;;;;;12.70;7.13;;;;;;;;;;5111710;28;20020;-71
2023/09/05 01:59:14;;;;;;;9.13;7.20;;;;;;;;;;5106665;28;20372;-71
2023/09/05 02:01:40;;;;;;;9.50;7.63;;;;;;;;;;5109730;28;20028;-71
2023/09/05 02:04:06;;;;;;;9.05;7.40;;;;;;;;;;5107916;28;20034;-71
2023/09/05 02:06:33;;;;;;;11.05;7.15;;;;;;;;;;5108498;28;20435;-71
2023/09/05 02:08:59;;;;;;;9.27;7.13;;;;;;;;;;5104249;28;20650;-71
2023/09/05 02:11:25;;;;;;;7.40;6.60;;;;;;;;;;5103487;28;20023;-71
2023/09/05 02:13:51;;;;;;;10.82;6.90;;;;;;;;;;5109777;28;20023;-71
2023/09/05 02:16:23;;;;;;;7.85;6.75;;;;;;;;;;5102650;28;20090;-71
2023/09/05 02:18:49;;;;;;;9.05;7.00;;;;;;;;;;5102606;28;20422;-71
2023/09/05 02:21:16;;;;;;;9.05;6.57;;;;;;;;;;5108869;28;20027;-72
2023/09/05 02:23:42;;;;;;;8.02;6.25;;;;;;;;;;5107346;28;20086;-72
2023/09/05 02:26:09;;;;;;;9.38;6.55;;;;;;;;;;5100215;28;20015;-71
2023/09/05 02:28:37;;;;;;;9.00;6.30;;;;;;;;;;5110014;28;20020;-71
2023/09/05 02:31:06;;;;;;;7.25;6.15;;;;;;;;;;5089438;28;20049;-70
2023/09/05 02:33:36;;;;;;;12.38;6.80;;;;;;;;;;5108147;27;20084;-71
2023/09/05 02:36:17;;;;;;;9.52;6.38;;;;;;;;;;5101947;28;20016;-71
2023/09/05 02:38:43;;;;;;;10.52;6.68;;;;;;;;;;5103343;28;20111;-71
2023/09/05 02:41:13;;;;;;;8.60;6.35;;;;;;;;;;5110444;28;20403;-72
2023/09/05 02:43:39;;;;;;;6.97;6.28;;;;;;;;;;5110481;28;20026;-71
2023/09/05 02:46:06;;;;;;;7.97;6.47;;;;;;;;;;5108992;28;20028;-71
2023/09/05 02:48:33;;;;;;;10.48;6.72;;;;;;;;;;5078058;28;20398;-71
2023/09/05 02:51:02;;;;;;;9.98;6.97;;;;;;;;;;5106008;28;20024;-72
2023/09/05 02:53:29;;;;;;;8.07;6.07;;;;;;;;;;5109408;28;20467;-71
2023/09/05 02:55:55;;;;;;;8.15;5.70;;;;;;;;;;5107975;27;20387;-71
2023/09/05 02:58:21;;;;;;;8.63;6.07;;;;;;;;;;5108601;28;20032;-71
2023/09/05 03:00:50;;;;;;;8.32;5.38;;;;;;;;;;5110464;28;20030;-70
2023/09/05 03:03:19;;;;;;;5.55;4.95;;;;;;;;;;5108601;28;20027;-70
2023/09/05 03:05:45;;;;;;;8.15;5.85;;;;;;;;;;5106011;28;20040;-71
2023/09/05 03:08:11;;;;;;;8.70;5.90;;;;;;;;;;5089533;28;20057;-71
2023/09/05 03:10:37;;;;;;;7.80;6.00;;;;;;;;;;5107721;28;20019;-71
2023/09/05 03:13:04;;;;;;;6.72;5.38;;;;;;;;;;5089891;28;20522;-71
2023/09/05 03:15:30;;;;;;;7.88;5.35;;;;;;;;;;5101335;28;20685;-71
2023/09/05 03:17:56;;;;;;;7.72;5.30;;;;;;;;;;5099640;28;20062;-71
2023/09/05 03:20:25;;;;;;;7.15;5.55;;;;;;;;;;5104991;28;20441;-71
2023/09/05 03:22:52;;;;;;;8.18;5.55;;;;;;;;;;5098885;28;20031;-71
2023/09/05 03:25:18;;;;;;;6.93;6.22;;;;;;;;;;5109951;28;20054;-71
2023/09/05 03:27:47;;;;;;;8.07;5.97;;;;;;;;;;5107224;28;20380;-71
2023/09/05 03:30:13;;;;;;;6.93;5.97;;;;;;;;;;5096089;28;20407;-71
2023/09/05 03:32:40;;;;;;;6.55;5.70;;;;;;;;;;5086825;28;20400;-72
2023/09/05 03:35:06;;;;;;;8.05;5.97;;;;;;;;;;5106562;28;20034;-71
2023/09/05 03:37:32;;;;;;;8.23;5.72;;;;;;;;;;5087334;28;20445;-71
2023/09/05 03:39:59;;;;;;;8.52;5.35;;;;;;;;;;5108471;28;20024;-72
2023/09/05 03:42:25;;;;;;;7.85;5.70;;;;;;;;;;5103018;28;20098;-71
2023/09/05 03:44:51;;;;;;;6.55;5.45;;;;;;;;;;5083436;28;20122;-71
2023/09/05 03:47:17;;;;;;;7.53;5.85;;;;;;;;;;5084394;28;20059;-71
2023/09/05 03:49:43;;;;;;;8.73;5.53;;;;;;;;;;5090813;28;20043;-71
2023/09/05 03:52:09;;;;;;;5.80;5.20;;;;;;;;;;5107531;28;20083;-70
2023/09/05 03:54:36;;;;;;;9.50;6.13;;;;;;;;;;5099748;28;20024;-72
2023/09/05 03:57:02;;;;;;;8.38;5.82;;;;;;;;;;5078080;28;20036;-72
2023/09/05 03:59:28;;;;;;;8.13;5.15;;;;;;;;;;5108285;28;20459;-71
2023/09/05 04:01:54;;;;;;;9.68;5.65;;;;;;;;;;5088359;28;20080;-72
2023/09/05 04:04:20;;;;;;;6.68;5.85;;;;;;;;;;5105058;28;20047;-71
2023/09/05 04:06:46;;;;;;;7.07;5.57;;;;;;;;;;5108990;28;20031;-70
2023/09/05 04:09:13;;;;;;;9.35;6.50;;;;;;;;;;5089255;28;20072;-71
2023/09/05 04:11:39;;;;;;;7.45;6.25;;;;;;;;;;5105033;28;20488;-72
2023/09/05 04:14:05;;;;;;;8.27;6.53;;;;;;;;;;5104562;28;20333;-71
2023/09/05 04:16:31;;;;;;;8.73;6.43;;;;;;;;;;5107832;28;20043;-70
2023/09/05 04:18:57;;;;;;;9.95;6.45;;;;;;;;;;5106649;28;20039;-70
2023/09/05 04:21:24;;;;;;;15.00;6.68;;;;;;;;;;5101361;28;20474;-72
2023/09/05 04:23:50;;;;;;;12.70;5.93;;;;;;;;;;5107785;28;20391;-70
2023/09/05 04:26:16;;;;;;;7.82;5.95;;;;;;;;;;5111175;27;20396;-71
2023/09/05 04:28:42;;;;;;;7.32;5.53;;;;;;;;;;5106917;27;20023;-71
2023/09/05 04:31:08;;;;;;;8.07;6.18;;;;;;;;;;5109605;28;20419;-71
2023/09/05 04:33:38;;;;;;;9.75;6.07;;;;;;;;;;5093741;28;20023;-71
2023/09/05 04:36:08;;;;;;;10.48;6.25;;;;;;;;;;5108941;28;20030;-71
2023/09/05 04:38:35;;;;;;;9.35;7.97;;;;;;;;;;5101621;28;20206;-72
2023/09/05 04:41:01;;;;;;;6.97;5.70;;;;;;;;;;5092274;28;20113;-71
2023/09/05 04:43:28;;;;;;;9.50;6.45;;;;;;;;;;5105951;28;20457;-72
2023/09/05 04:45:54;;;;;;;8.68;6.72;;;;;;;;;;5109108;28;20509;-72
2023/09/05 04:48:20;;;;;;;9.35;6.68;;;;;;;;;;5105829;28;20038;-72
2023/09/05 04:50:47;;;;;;;8.23;6.80;;;;;;;;;;5105738;28;20032;-71
2023/09/05 04:53:13;;;;;;;8.80;6.78;;;;;;;;;;5106107;28;20031;-71
2023/09/05 04:55:42;;;;;;;8.57;6.70;;;;;;;;;;5109557;28;20084;-71
2023/09/05 04:58:09;;;;;;;9.10;6.82;;;;;;;;;;5104503;28;20430;-71
2023/09/05 05:00:35;;;;;;;8.45;6.60;;;;;;;;;;5103123;28;20027;-71
2023/09/05 05:03:01;;;;;;;9.13;7.35;;;;;;;;;;5107154;28;20032;-71
2023/09/05 05:05:27;;;;;;;9.43;6.57;;;;;;;;;;5104860;28;20031;-71
2023/09/05 05:07:53;;;;;;;7.75;6.18;;;;;;;;;;5110677;27;20068;-71
2023/09/05 05:10:20;;;;;;;13.40;7.20;;;;;;;;;;5106958;28;20031;-71
2023/09/05 05:12:47;;;;;;;8.85;7.05;;;;;;;;;;5083001;28;20066;-71
2023/09/05 05:15:13;;;;;;;9.25;7.50;;;;;;;;;;5106880;28;20081;-71
2023/09/05 05:17:39;;;;;;;12.52;7.93;;;;;;;;;;5087462;28;20757;-71
2023/09/05 05:20:06;;;;;;;11.95;7.97;;;;;;;;;;5102721;28;20379;-71
2023/09/05 05:22:32;;;;;;;10.68;7.30;;;;;;;;;;5106919;28;20031;-71
2023/09/05 05:24:59;;;;;;;13.45;8.20;;;;;;;;;;5092648;28;20038;-71
2023/09/05 05:27:25;;;;;;;11.25;7.20;;;;;;;;;;5087513;28;20483;-71
2023/09/05 05:29:52;;;;;;;11.55;7.68;;;;;;;;;;5104984;28;20031;-71
2023/09/05 05:32:18;;;;;;;11.43;7.50;;;;;;;;;;5104993;28;20455;-71
2023/09/05 05:34:48;;;;;;;10.88;7.90;;;;;;;;;;5108415;28;20491;-71
2023/09/05 05:37:15;;;;;;;12.95;7.88;;;;;;;;;;5096135;28;20383;-71
2023/09/05 05:39:42;;;;;;;11.43;8.07;;;;;;;;;;5098556;28;20028;-71
2023/09/05 05:42:08;;;;;;;11.57;7.80;;;;;;;;;;5102725;28;20491;-72
2023/09/05 05:44:34;;;;;;;8.52;6.25;;;;;;;;;;5094968;28;20043;-71
2023/09/05 05:47:01;;;;;;;9.82;7.57;;;;;;;;;;5100297;28;20118;-71
2023/09/05 05:49:30;;;;;;;9.82;7.50;;;;;;;;;;5098552;28;20030;-71
2023/09/05 05:52:00;;;;;;;12.90;8.98;;;;;;;;;;5085603;28;20035;-71
2023/09/05 05:54:27;;;;;;;9.73;6.95;;;;;;;;;;5100188;28;20118;-71
2023/09/05 05:56:55;;;;;;;11.60;7.50;;;;;;;;;;5101845;28;20046;-71
2023/09/05 05:59:21;;;;;;;11.57;7.75;;;;;;;;;;5078568;28;20035;-71
2023/09/05 06:01:47;;;;;;;13.75;8.60;;;;;;;;;;5097984;28;20472;-71
2023/09/05 06:04:15;;;;;;;11.48;7.70;;;;;;;;;;5101799;28;20065;-71
2023/09/05 06:06:42;;;;;;;13.43;7.53;;;;;;;;;;5097402;28;20072;-70
2023/09/05 06:09:09;;;;;;;11.35;7.88;;;;;;;;;;5104428;28;20020;-71
2023/09/05 06:11:35;;;;;;;13.25;8.70;;;;;;;;;;5098103;28;20077;-72
2023/09/05 06:14:01;;;;;;;12.20;8.88;;;;;;;;;;5083854;28;20019;-71
2023/09/05 06:16:28;;;;;;;11.95;7.88;;;;;;;;;;5098091;28;20114;-71
2023/09/05 06:18:54;;;;;;;12.15;7.15;;;;;;;;;;5080857;28;20130;-71
2023/09/05 06:21:20;;;;;;;13.18;7.75;;;;;;;;;;5087698;28;20099;-71
2023/09/05 06:23:47;;;;;;;9.55;7.32;;;;;;;;;;5082700;28;20036;-70
2023/09/05 06:26:13;;;;;;;13.32;8.73;;;;;;;;;;5099932;28;20030;-70
2023/09/05 06:28:39;;;;;;;12.52;8.10;;;;;;;;;;5103561;28;20054;-71
2023/09/05 06:31:05;;;;;;;9.52;7.50;;;;;;;;;;5085557;28;20050;-71
2023/09/05 06:33:31;;;;;;;11.82;8.50;;;;;;;;;;5101754;28;20100;-70
2023/09/05 06:35:58;;;;;;;11.27;7.75;;;;;;;;;;5096766;28;20039;-71
2023/09/05 06:38:24;;;;;;;12.07;7.15;;;;;;;;;;5105275;28;20032;-70
2023/09/05 06:40:50;;;;;;;12.00;7.00;;;;;;;;;;5107236;28;20398;-70
2023/09/05 06:43:16;;;;;;;14.60;7.45;;;;;;;;;;5102771;28;20028;-70
2023/09/05 06:45:43;;;;;;;10.30;7.60;;;;;;;;;;5103890;28;20031;-71
2023/09/05 06:48:09;;;;;;;11.65;8.40;;;;;;;;;;5101487;28;20502;-70
2023/09/05 06:50:35;;;;;;;14.95;8.20;;;;;;;;;;5109248;28;20641;-71
2023/09/05 06:53:01;;;;;;;11.82;7.95;;;;;;;;;;5100673;28;20081;-70
2023/09/05 06:55:28;;;;;;;11.63;7.63;;;;;;;;;;5099997;28;20031;-71
2023/09/05 06:57:55;;;;;;;9.38;7.82;;;;;;;;;;5075859;28;20078;-70
2023/09/05 07:03:26;;;;;;;13.20;8.35;;;;;;;;;;5046749;28;20035;-73
2023/09/05 07:05:53;;;;;;;11.63;7.90;;;;;;;;;;5093376;28;20580;-72
2023/09/05 07:08:19;;;;;;;15.90;8.23;;;;;;;;;;5098541;28;20030;-71
2023/09/05 07:10:48;;;;;;;14.05;8.23;;;;;;;;;;5099206;28;20115;-71
2023/09/05 07:13:14;;;;;;;13.52;7.80;;;;;;;;;;5089251;28;20040;-71
2023/09/05 07:15:43;;;;;;;12.48;8.82;;;;;;;;;;5099078;28;20044;-71
2023/09/05 07:18:12;;;;;;;13.75;9.50;;;;;;;;;;5094650;28;20403;-71
2023/09/05 07:20:41;;;;;;;12.35;8.85;;;;;;;;;;5076099;28;20046;-77
2023/09/05 07:23:07;;;;;;;16.67;7.95;;;;;;;;;;5098344;28;20358;-74
2023/09/05 07:25:38;;;;;;;11.80;8.38;;;;;;;;;;5100258;28;20055;-73
2023/09/05 07:28:05;;;;;;;13.27;8.48;;;;;;;;;;5101160;27;20028;-78
2023/09/05 07:30:34;;;;;;;14.85;9.98;;;;;;;;;;5101898;28;20046;-80
2023/09/05 07:33:01;;;;;;;12.25;7.85;;;;;;;;;;5106673;28;20031;-80
2023/09/05 07:35:27;;;;;;;11.40;8.13;;;;;;;;;;5107223;28;20030;-84
2023/09/05 07:37:53;;;;;;;15.23;8.88;;;;;;;;;;5106675;28;20104;-76
2023/09/05 07:40:22;;;;;;;12.50;8.90;;;;;;;;;;5104714;28;20043;-74
2023/09/05 07:42:51;;;;;;;14.73;8.40;;;;;;;;;;5101204;28;20040;-77
2023/09/05 07:45:17;;;;;;;14.45;8.50;;;;;;;;;;5103161;28;20046;-77
2023/09/05 07:47:44;;;;;;;15.07;9.52;;;;;;;;;;5103623;28;20105;-76
2023/09/05 07:50:12;;;;;;;17.35;9.48;;;;;;;;;;5102341;28;20022;-75
2023/09/05 07:52:38;;;;;;;14.43;8.50;;;;;;;;;;5094611;28;20037;-75
2023/09/05 07:55:05;;;;;;;17.33;8.77;;;;;;;;;;5103097;28;20106;-77
2023/09/05 07:57:31;;;;;;;13.50;8.88;;;;;;;;;;5106872;28;20028;-79
2023/09/05 07:59:57;;;;;;;12.82;7.93;;;;;;;;;;5098689;28;20035;-81
2023/09/05 08:02:23;;;;;;;12.77;7.85;;;;;;;;;;5102402;28;20035;-80
2023/09/05 08:04:50;;;;;;;15.48;8.50;;;;;;;;;;5088224;28;20734;-75
2023/09/05 08:07:16;;;;;;;13.77;8.13;;;;;;;;;;5081951;28;20027;-71
2023/09/05 08:09:43;;;;;;;11.25;8.18;;;;;;;;;;5083804;28;20024;-74
2023/09/05 08:12:09;;;;;;;11.70;8.10;;;;;;;;;;5101378;28;20032;-76
2023/09/05 08:14:35;;;;;;;12.73;8.50;;;;;;;;;;5088584;28;20089;-76
2023/09/05 08:17:01;;;;;;;16.50;8.80;;;;;;;;;;5096220;28;20034;-74
2023/09/05 08:19:28;;;;;;;15.48;7.60;;;;;;;;;;5101927;28;20106;-74
2023/09/05 08:21:54;;;;;;;10.75;7.20;;;;;;;;;;5099365;28;20484;-76
2023/09/05 08:24:20;;;;;;;17.20;8.07;;;;;;;;;;5102781;28;20043;-73
2023/09/05 08:26:46;;;;;;;12.30;8.05;;;;;;;;;;5101294;28;20027;-76
2023/09/05 08:29:14;;;;;;;9.57;7.40;;;;;;;;;;5098445;28;20479;-75
2023/09/05 08:31:40;;;;;;;11.38;7.75;;;;;;;;;;5097655;28;20031;-76
2023/09/05 08:34:09;;;;;;;18.40;8.40;;;;;;;;;;5083732;28;20414;-76
2023/09/05 08:36:37;;;;;;;11.07;7.47;;;;;;;;;;5097272;28;20407;-76
2023/09/05 08:39:04;;;;;;;14.38;9.48;;;;;;;;;;5084954;28;20047;-75
2023/09/05 08:41:31;;;;;;;15.27;7.68;;;;;;;;;;5079197;28;20410;-76
2023/09/05 08:43:57;;;;;;;12.23;7.95;;;;;;;;;;5082464;28;20032;-76
2023/09/05 08:46:24;;;;;;;15.60;8.85;;;;;;;;;;5099147;28;20028;-77
2023/09/05 08:48:51;;;;;;;11.13;8.52;;;;;;;;;;5100933;28;20027;-76
2023/09/05 08:51:18;;;;;;;12.85;7.75;;;;;;;;;;5102201;28;20030;-75
2023/09/05 08:53:51;;;;;;;11.77;7.60;;;;;;;;;;5098795;28;20031;-74
2023/09/05 08:56:17;;;;;;;10.93;8.10;;;;;;;;;;5099624;28;20019;-75
2023/09/05 08:58:44;;;;;;;12.60;7.95;;;;;;;;;;5083824;28;20035;-75
2023/09/05 09:01:11;;;;;;;12.73;7.60;;;;;;;;;;5080073;28;20065;-74
2023/09/05 09:03:40;;;;;;;10.82;8.07;;;;;;;;;;5074993;28;20028;-75
2023/09/05 09:06:10;;;;;;;11.13;7.18;;;;;;;;;;5083750;28;20566;-74
2023/09/05 09:08:44;;;;;;;11.35;7.88;;;;;;;;;;5097633;28;20036;-74
2023/09/05 09:11:10;;;;;;;12.02;8.05;;;;;;;;;;5094071;28;20481;-75
2023/09/05 09:13:40;;;;;;;12.35;7.82;;;;;;;;;;5081143;28;20490;-75
2023/09/05 09:16:07;;;;;;;11.90;7.22;;;;;;;;;;5076980;28;20040;-76
2023/09/05 09:18:34;;;;;;;9.10;7.05;;;;;;;;;;5085157;28;20582;-74
2023/09/05 09:21:04;;;;;;;11.93;7.57;;;;;;;;;;5094560;28;20136;-75
2023/09/05 09:23:35;;;;;;;9.90;7.15;;;;;;;;;;5079866;28;20544;-74
2023/09/05 09:26:01;;;;;;;10.23;7.30;;;;;;;;;;5100591;28;20024;-74
2023/09/05 09:28:29;;;;;;;13.30;7.80;;;;;;;;;;5082284;28;20111;-74
2023/09/05 09:31:05;;;;;;;10.10;6.88;;;;;;;;;;5097480;28;20111;-74
2023/09/05 09:33:33;;;;;;;12.05;7.25;;;;;;;;;;5071966;28;20553;-75
2023/09/05 09:36:05;;;;;;;12.50;7.90;;;;;;;;;;5099623;28;20427;-74
2023/09/05 09:38:32;;;;;;;9.88;7.65;;;;;;;;;;5091674;28;20488;-73
2023/09/05 09:41:01;;;;;;;11.38;7.60;;;;;;;;;;5097617;28;20031;-74
2023/09/05 09:43:30;;;;;;;12.32;6.93;;;;;;;;;;5095021;28;20032;-74
2023/09/05 09:46:00;;;;;;;13.07;7.97;;;;;;;;;;5096360;28;20133;-73
2023/09/05 09:48:27;;;;;;;9.00;6.97;;;;;;;;;;5096444;28;20391;-74
2023/09/05 09:50:54;;;;;;;10.13;7.07;;;;;;;;;;5095901;28;20513;-74
2023/09/05 09:53:29;;;;;;;9.50;6.65;;;;;;;;;;5075060;28;20034;-77
2023/09/05 09:55:56;;;;;;;10.02;6.80;;;;;;;;;;5079043;28;20055;-73
2023/09/05 09:58:23;;;;;;;11.15;7.05;;;;;;;;;;5100092;28;20030;-75
2023/09/05 10:00:52;;;;;;;11.45;7.00;;;;;;;;;;5101891;28;20376;-77
2023/09/05 10:03:19;;;;;;;14.73;6.13;;;;;;;;;;5099273;28;20084;-74
2023/09/05 10:05:46;;;;;;;8.80;5.97;;;;;;;;;;5083745;28;20039;-72
2023/09/05 10:08:12;;;;;;;9.00;6.43;;;;;;;;;;5093700;28;20510;-71
2023/09/05 10:10:39;;;;;;;10.23;7.05;;;;;;;;;;5095932;28;20079;-69
2023/09/05 10:13:07;;;;;;;9.70;5.95;;;;;;;;;;5099607;28;20039;-69
2023/09/05 10:15:34;;;;;;;7.15;5.75;;;;;;;;;;5099999;28;20044;-69
2023/09/05 10:18:01;;;;;;;8.88;5.68;;;;;;;;;;5100391;28;20026;-69
2023/09/05 10:20:28;;;;;;;8.98;5.70;;;;;;;;;;5078002;28;20019;-70
2023/09/05 10:22:54;;;;;;;8.88;5.35;;;;;;;;;;5081867;28;20612;-70
2023/09/05 10:25:20;;;;;;;8.93;5.00;;;;;;;;;;5098980;28;20059;-70
2023/09/05 10:27:47;;;;;;;6.47;5.22;;;;;;;;;;5100005;28;20035;-69
2023/09/05 10:30:13;;;;;;;9.70;5.57;;;;;;;;;;5099215;28;20031;-71
2023/09/05 10:32:44;;;;;;;6.53;4.70;;;;;;;;;;5100683;28;20047;-69
2023/09/05 10:35:11;;;;;;;6.82;5.07;;;;;;;;;;5098484;28;20020;-69
2023/09/05 10:37:44;;;;;;;6.82;5.07;;;;;;;;;;5101026;28;20023;-68
2023/09/05 10:40:11;;;;;;;6.43;4.93;;;;;;;;;;5102746;28;20039;-73
2023/09/05 10:42:50;;;;;;;6.68;5.10;;;;;;;;;;5098911;28;20471;-70
2023/09/05 10:45:17;;;;;;;6.85;4.50;;;;;;;;;;5100693;27;20030;-71
2023/09/05 10:47:44;;;;;;;7.45;4.68;;;;;;;;;;5102394;28;20038;-69
2023/09/05 10:50:11;;;;;;;5.97;4.10;;;;;;;;;;5092300;28;20592;-68
2023/09/05 10:52:37;;;;;;;6.20;4.70;;;;;;;;;;5080804;28;20487;-70
2023/09/05 10:55:21;;;;;;;17.35;4.68;;;;;;;;;;5101929;28;20031;-70
2023/09/05 10:57:50;;;;;;;5.07;3.88;;;;;;;;;;5097885;28;20028;-69
2023/09/05 11:00:20;;;;;;;9.95;4.65;;;;;;;;;;5096689;28;20080;-70
2023/09/05 11:02:47;;;;;;;6.45;3.90;;;;;;;;;;5101343;28;20031;-74
2023/09/05 11:05:18;;;;;;;7.78;4.38;;;;;;;;;;5099774;28;20031;-72
2023/09/05 11:07:55;;;;;;;4.72;3.85;;;;;;;;;;5102805;28;20039;-70
2023/09/05 11:10:27;;;;;;;5.60;4.10;;;;;;;;;;5082957;28;20426;-70
2023/09/05 11:12:53;;;;;;;7.05;4.78;;;;;;;;;;5099017;28;20442;-70
2023/09/05 11:15:32;;;;;;;6.70;4.60;;;;;;;;;;5096012;28;20047;-70
2023/09/05 11:18:04;;;;;;;6.28;4.15;;;;;;;;;;5097474;28;20023;-70
2023/09/05 11:20:40;;;;;;;4.82;3.58;;;;;;;;;;5084106;27;20382;-72
2023/09/05 11:23:15;;;;;;;4.28;3.80;;;;;;;;;;5095597;28;20031;-70
2023/09/05 11:25:49;;;;;;;5.70;3.67;;;;;;;;;;5098328;27;20040;-68
2023/09/05 11:28:15;;;;;;;6.70;4.22;;;;;;;;;;5080928;28;20490;-69
2023/09/05 11:30:43;;;;;;;6.28;3.90;;;;;;;;;;5097918;28;20165;-69
2023/09/05 11:33:16;;;;;;;7.40;4.28;;;;;;;;;;5099734;28;20585;-69
2023/09/05 11:35:42;;;;;;;6.05;4.55;;;;;;;;;;5078683;28;20114;-69
2023/09/05 11:38:09;;;;;;;4.95;3.75;;;;;;;;;;5100211;28;20031;-69
2023/09/05 11:40:36;;;;;;;6.35;4.32;;;;;;;;;;5080708;28;20035;-69
2023/09/05 11:43:10;;;;;;;5.85;4.10;;;;;;;;;;5101020;28;20502;-69
2023/09/05 11:45:43;;;;;;;6.67;4.60;;;;;;;;;;5095209;28;20437;-68
2023/09/05 11:48:14;;;;;;;6.00;4.00;;;;;;;;;;5080207;28;20035;-69
2023/09/05 11:50:40;;;;;;;7.63;4.57;;;;;;;;;;5095077;28;20046;-68
2023/09/05 11:53:11;;;;;;;5.68;4.18;;;;;;;;;;5092864;28;20020;-68
2023/09/05 11:55:37;;;;;;;6.68;4.68;;;;;;;;;;5080129;28;20847;-69
2023/09/05 11:58:05;;;;;;;6.68;4.75;;;;;;;;;;5080477;28;20514;-68
2023/09/05 12:00:38;;;;;;;8.77;4.80;;;;;;;;;;5099156;28;20084;-68
2023/09/05 12:03:08;;;;;;;7.90;5.57;;;;;;;;;;5081323;28;20383;-68
2023/09/05 12:05:37;;;;;;;7.30;5.00;;;;;;;;;;5100269;28;20034;-68
2023/09/05 12:08:07;;;;;;;7.78;4.53;;;;;;;;;;5099804;28;20073;-69
2023/09/05 12:10:52;;;;;;;7.28;5.25;;;;;;;;;;5101953;28;20114;-69
2023/09/05 12:13:19;;;;;;;9.88;5.13;;;;;;;;;;5098769;28;20054;-67
2023/09/05 12:15:46;;;;;;;8.85;5.28;;;;;;;;;;5099582;28;20047;-68
2023/09/05 12:18:19;;;;;;;8.00;4.68;;;;;;;;;;5099416;28;20027;-68
2023/09/05 12:20:55;;;;;;;7.68;4.60;;;;;;;;;;5099261;28;20032;-69
2023/09/05 12:23:25;;;;;;;6.45;4.82;;;;;;;;;;5099083;28;20031;-69
2023/09/05 12:25:54;;;;;;;8.00;5.60;;;;;;;;;;5094416;28;20110;-70
2023/09/05 12:28:22;;;;;;;8.50;4.90;;;;;;;;;;5081331;28;20695;-69
2023/09/05 12:30:48;;;;;;;6.18;4.85;;;;;;;;;;5100617;28;20019;-68
2023/09/05 12:33:16;;;;;;;6.10;4.30;;;;;;;;;;5094352;28;20376;-69
2023/09/05 12:35:42;;;;;;;8.48;5.35;;;;;;;;;;5101813;28;20019;-68
2023/09/05 12:38:09;;;;;;;4.95;4.45;;;;;;;;;;5106076;28;20550;-69
2023/09/05 12:40:36;;;;;;;6.47;5.13;;;;;;;;;;5085103;28;20030;-68
2023/09/05 12:43:02;;;;;;;7.72;5.28;;;;;;;;;;5084861;28;20030;-69
2023/09/05 12:45:29;;;;;;;6.55;4.95;;;;;;;;;;5097985;28;20488;-69
2023/09/05 12:47:55;;;;;;;7.20;4.57;;;;;;;;;;5097195;28;20035;-69
2023/09/05 12:50:35;;;;;;;7.78;4.65;;;;;;;;;;5103207;28;20023;-68
2023/09/05 12:53:01;;;;;;;7.85;4.82;;;;;;;;;;5099597;28;20023;-68
2023/09/05 12:55:28;;;;;;;8.65;5.03;;;;;;;;;;5095233;28;20028;-69
2023/09/05 12:57:55;;;;;;;5.95;4.78;;;;;;;;;;5086792;28;20032;-68
2023/09/05 13:00:21;;;;;;;7.30;4.38;;;;;;;;;;5104996;28;20061;-69
2023/09/05 13:02:47;;;;;;;6.25;4.72;;;;;;;;;;5099555;28;20372;-68
2023/09/05 13:05:14;;;;;;;6.20;4.70;;;;;;;;;;5085662;28;20055;-66
2023/09/05 13:07:41;;;;;;;5.70;4.60;;;;;;;;;;5095349;28;20148;-68
2023/09/05 13:10:08;;;;;;;6.97;4.65;;;;;;;;;;5090137;28;20024;-68
2023/09/05 13:12:35;;;;;;;5.72;4.85;;;;;;;;;;5097718;28;20066;-68
2023/09/05 13:15:02;;;;;;;5.68;4.18;;;;;;;;;;5083247;28;20051;-70
2023/09/05 13:17:28;;;;;;;6.65;4.50;;;;;;;;;;5089066;28;20301;-67
2023/09/05 13:19:55;;;;;;;5.47;4.20;;;;;;;;;;5075395;28;20061;-69
2023/09/05 13:22:21;;;;;;;6.60;4.30;;;;;;;;;;5079592;28;20032;-69
2023/09/05 13:24:48;;;;;;;7.30;4.30;;;;;;;;;;5081420;28;20115;-69
2023/09/05 13:27:14;;;;;;;6.28;4.72;;;;;;;;;;5081714;28;20096;-69
2023/09/05 13:29:40;;;;;;;5.85;4.57;;;;;;;;;;5075656;28;20028;-70
2023/09/05 13:32:08;;;;;;;9.57;4.95;;;;;;;;;;5074938;28;20035;-69
2023/09/05 13:34:35;;;;;;;6.10;4.22;;;;;;;;;;5080440;28;20115;-68
2023/09/05 13:37:01;;;;;;;5.32;4.30;;;;;;;;;;5076461;28;20390;-70
2023/09/05 13:39:28;;;;;;;7.93;4.30;;;;;;;;;;5073327;28;20062;-68
2023/09/05 13:41:55;;;;;;;9.70;4.53;;;;;;;;;;5076922;28;20463;-70
2023/09/05 13:44:21;;;;;;;7.93;4.32;;;;;;;;;;5077170;28;20030;-69
2023/09/05 13:46:50;;;;;;;7.15;4.47;;;;;;;;;;5078455;28;20285;-70
2023/09/05 13:49:16;;;;;;;6.78;4.80;;;;;;;;;;5079153;28;20039;-68
2023/09/05 13:51:43;;;;;;;7.65;5.18;;;;;;;;;;5080523;28;20480;-68
2023/09/05 13:54:09;;;;;;;5.78;4.30;;;;;;;;;;5081124;28;20016;-69
2023/09/05 13:56:35;;;;;;;6.70;4.55;;;;;;;;;;5080301;28;20036;-70
2023/09/05 13:59:02;;;;;;;10.30;4.72;;;;;;;;;;5082766;28;20026;-69
2023/09/05 14:01:28;;;;;;;5.85;4.63;;;;;;;;;;5083373;28;20023;-71
2023/09/05 14:03:57;;;;;;;7.60;4.55;;;;;;;;;;5078481;28;20101;-72
2023/09/05 14:06:23;;;;;;;7.80;4.57;;;;;;;;;;5078939;28;20024;-71
2023/09/05 14:08:50;;;;;;;7.00;4.43;;;;;;;;;;5079920;28;20043;-72
2023/09/05 14:11:16;;;;;;;6.43;4.38;;;;;;;;;;5094374;28;20586;-71
2023/09/05 14:13:42;;;;;;;7.55;5.20;;;;;;;;;;5074324;28;20032;-72
2023/09/05 14:16:09;;;;;;;8.32;4.82;;;;;;;;;;5093541;28;20062;-71
2023/09/05 14:18:36;;;;;;;9.30;4.88;;;;;;;;;;5099110;28;20027;-70
2023/09/05 14:21:04;;;;;;;7.72;5.13;;;;;;;;;;5092072;28;20113;-68
2023/09/05 14:23:30;;;;;;;8.55;5.20;;;;;;;;;;5100198;28;20104;-72
2023/09/05 14:25:56;;;;;;;8.77;5.00;;;;;;;;;;5077363;28;20395;-69
2023/09/05 14:28:24;;;;;;;7.45;5.35;;;;;;;;;;5098205;28;21047;-69
2023/09/05 14:30:53;;;;;;;8.75;4.80;;;;;;;;;;5090720;28;20038;-69
2023/09/05 14:33:19;;;;;;;9.30;5.43;;;;;;;;;;5101888;28;20432;-67
2023/09/05 14:35:46;;;;;;;7.72;4.93;;;;;;;;;;5100216;28;20028;-70
2023/09/05 14:38:12;;;;;;;9.68;5.10;;;;;;;;;;5097336;28;20019;-70
2023/09/05 14:40:41;;;;;;;10.80;5.40;;;;;;;;;;5100020;28;20027;-72
2023/09/05 14:43:07;;;;;;;8.57;6.05;;;;;;;;;;5083100;28;20251;-70